sensor_id;sensor_type;location;lat;lon;timestamp;temperature;humidity
41481;DHT22;27217;51.220;5.308;2022-09-03T00:01:45;18.80;88.30
41481;DHT22;27217;51.220;5.308;2022-09-03T00:04:40;18.90;88.10
41481;DHT22;27217;51.220;5.308;2022-09-03T00:10:03;18.60;90.30
41481;DHT22;27217;51.220;5.308;2022-09-03T00:12:35;18.50;90.70
41481;DHT22;27217;51.220;5.308;2022-09-03T00:15:10;18.50;91.00
41481;DHT22;27217;51.220;5.308;2022-09-03T00:17:43;18.50;91.00
41481;DHT22;27217;51.220;5.308;2022-09-03T00:20:37;18.50;91.20
41481;DHT22;27217;51.220;5.308;2022-09-03T00:23:06;18.50;91.50
41481;DHT22;27217;51.220;5.308;2022-09-03T00:28:01;18.80;90.90
41481;DHT22;27217;51.220;5.308;2022-09-03T00:30:31;18.70;91.00
41481;DHT22;27217;51.220;5.308;2022-09-03T00:33:04;18.70;91.30
41481;DHT22;27217;51.220;5.308;2022-09-03T00:35:51;18.50;91.70
41481;DHT22;27217;51.220;5.308;2022-09-03T00:38:18;18.50;92.10
41481;DHT22;27217;51.220;5.308;2022-09-03T00:40:59;18.50;92.00
41481;DHT22;27217;51.220;5.308;2022-09-03T00:47:08;18.50;92.40
41481;DHT22;27217;51.220;5.308;2022-09-03T00:49:43;18.60;92.30
41481;DHT22;27217;51.220;5.308;2022-09-03T00:54:54;18.30;92.90
41481;DHT22;27217;51.220;5.308;2022-09-03T01:00:25;18.30;93.50
41481;DHT22;27217;51.220;5.308;2022-09-03T01:22:03;17.80;96.20
41481;DHT22;27217;51.220;5.308;2022-09-03T01:30:44;17.70;96.90
41481;DHT22;27217;51.220;5.308;2022-09-03T01:33:21;17.70;96.80
41481;DHT22;27217;51.220;5.308;2022-09-03T01:50:22;17.40;98.40
41481;DHT22;27217;51.220;5.308;2022-09-03T01:59:08;17.60;97.90
41481;DHT22;27217;51.220;5.308;2022-09-03T02:01:42;17.60;98.20
41481;DHT22;27217;51.220;5.308;2022-09-03T02:04:23;17.50;98.20
41481;DHT22;27217;51.220;5.308;2022-09-03T02:06:50;17.40;98.90
41481;DHT22;27217;51.220;5.308;2022-09-03T02:09:17;17.40;98.90
41481;DHT22;27217;51.220;5.308;2022-09-03T02:11:46;17.30;99.20
41481;DHT22;27217;51.220;5.308;2022-09-03T02:14:15;17.30;99.10
41481;DHT22;27217;51.220;5.308;2022-09-03T02:16:41;17.30;99.30
41481;DHT22;27217;51.220;5.308;2022-09-03T02:19:12;17.40;99.30
41481;DHT22;27217;51.220;5.308;2022-09-03T02:21:51;17.40;99.00
41481;DHT22;27217;51.220;5.308;2022-09-03T02:24:18;17.50;98.70
41481;DHT22;27217;51.220;5.308;2022-09-03T02:26:44;17.40;98.90
41481;DHT22;27217;51.220;5.308;2022-09-03T02:29:13;17.60;98.70
41481;DHT22;27217;51.220;5.308;2022-09-03T02:31:40;17.60;98.50
41481;DHT22;27217;51.220;5.308;2022-09-03T02:34:06;17.60;98.40
41481;DHT22;27217;51.220;5.308;2022-09-03T02:36:44;17.60;98.60
41481;DHT22;27217;51.220;5.308;2022-09-03T02:39:14;17.50;98.70
41481;DHT22;27217;51.220;5.308;2022-09-03T02:41:40;17.40;99.00
41481;DHT22;27217;51.220;5.308;2022-09-03T02:44:18;17.50;98.90
41481;DHT22;27217;51.220;5.308;2022-09-03T02:47:06;17.40;99.00
41481;DHT22;27217;51.220;5.308;2022-09-03T02:49:32;17.40;99.10
41481;DHT22;27217;51.220;5.308;2022-09-03T02:52:01;17.60;98.50
41481;DHT22;27217;51.220;5.308;2022-09-03T02:54:30;17.70;98.10
41481;DHT22;27217;51.220;5.308;2022-09-03T02:56:58;17.60;98.30
41481;DHT22;27217;51.220;5.308;2022-09-03T02:59:24;17.70;98.30
41481;DHT22;27217;51.220;5.308;2022-09-03T03:01:53;17.60;98.20
41481;DHT22;27217;51.220;5.308;2022-09-03T03:04:20;17.70;98.10
41481;DHT22;27217;51.220;5.308;2022-09-03T03:06:46;17.70;98.30
41481;DHT22;27217;51.220;5.308;2022-09-03T03:09:12;17.50;98.50
41481;DHT22;27217;51.220;5.308;2022-09-03T03:11:38;17.60;98.60
41481;DHT22;27217;51.220;5.308;2022-09-03T03:14:04;17.60;98.70
41481;DHT22;27217;51.220;5.308;2022-09-03T03:16:30;17.40;99.30
41481;DHT22;27217;51.220;5.308;2022-09-03T03:18:56;17.40;99.30
41481;DHT22;27217;51.220;5.308;2022-09-03T03:21:22;17.50;99.10
41481;DHT22;27217;51.220;5.308;2022-09-03T03:23:48;17.40;99.40
41481;DHT22;27217;51.220;5.308;2022-09-03T03:26:16;17.30;99.90
41481;DHT22;27217;51.220;5.308;2022-09-03T03:28:43;17.40;99.80
41481;DHT22;27217;51.220;5.308;2022-09-03T03:31:12;17.50;99.20
41481;DHT22;27217;51.220;5.308;2022-09-03T03:33:39;17.60;98.80
41481;DHT22;27217;51.220;5.308;2022-09-03T03:36:14;17.60;98.70
41481;DHT22;27217;51.220;5.308;2022-09-03T03:38:41;17.50;98.90
41481;DHT22;27217;51.220;5.308;2022-09-03T03:41:14;17.50;99.00
41481;DHT22;27217;51.220;5.308;2022-09-03T03:43:40;17.40;99.10
41481;DHT22;27217;51.220;5.308;2022-09-03T03:46:06;17.50;99.40
41481;DHT22;27217;51.220;5.308;2022-09-03T03:48:32;17.50;99.20
41481;DHT22;27217;51.220;5.308;2022-09-03T03:51:03;17.50;98.90
41481;DHT22;27217;51.220;5.308;2022-09-03T03:53:30;17.50;99.10
41481;DHT22;27217;51.220;5.308;2022-09-03T03:55:58;17.60;98.70
41481;DHT22;27217;51.220;5.308;2022-09-03T03:58:24;17.60;98.80
41481;DHT22;27217;51.220;5.308;2022-09-03T04:00:51;17.60;98.60
41481;DHT22;27217;51.220;5.308;2022-09-03T04:03:17;17.70;98.70
41481;DHT22;27217;51.220;5.308;2022-09-03T04:05:54;17.60;98.70
41481;DHT22;27217;51.220;5.308;2022-09-03T04:08:20;17.60;98.80
41481;DHT22;27217;51.220;5.308;2022-09-03T04:10:46;17.60;98.90
41481;DHT22;27217;51.220;5.308;2022-09-03T04:13:12;17.70;98.90
41481;DHT22;27217;51.220;5.308;2022-09-03T04:15:38;17.80;98.50
41481;DHT22;27217;51.220;5.308;2022-09-03T04:18:04;17.70;98.50
41481;DHT22;27217;51.220;5.308;2022-09-03T04:20:30;17.70;98.70
41481;DHT22;27217;51.220;5.308;2022-09-03T04:23:00;17.60;99.00
41481;DHT22;27217;51.220;5.308;2022-09-03T04:25:26;17.50;99.30
41481;DHT22;27217;51.220;5.308;2022-09-03T04:27:52;17.50;99.40
41481;DHT22;27217;51.220;5.308;2022-09-03T04:30:18;17.60;99.10
41481;DHT22;27217;51.220;5.308;2022-09-03T04:32:44;17.60;99.20
41481;DHT22;27217;51.220;5.308;2022-09-03T04:35:24;17.40;99.60
41481;DHT22;27217;51.220;5.308;2022-09-03T04:37:50;17.40;99.80
41481;DHT22;27217;51.220;5.308;2022-09-03T04:40:16;17.20;99.90
41481;DHT22;27217;51.220;5.308;2022-09-03T04:42:41;17.30;99.90
41481;DHT22;27217;51.220;5.308;2022-09-03T04:45:08;17.40;99.90
41481;DHT22;27217;51.220;5.308;2022-09-03T04:47:34;17.40;99.90
41481;DHT22;27217;51.220;5.308;2022-09-03T04:50:03;17.40;99.90
41481;DHT22;27217;51.220;5.308;2022-09-03T04:52:29;17.40;99.90
41481;DHT22;27217;51.220;5.308;2022-09-03T04:54:56;17.40;99.90
41481;DHT22;27217;51.220;5.308;2022-09-03T04:57:23;17.50;99.90
41481;DHT22;27217;51.220;5.308;2022-09-03T04:59:49;17.40;99.90
41481;DHT22;27217;51.220;5.308;2022-09-03T05:02:15;17.30;99.90
41481;DHT22;27217;51.220;5.308;2022-09-03T05:04:41;17.40;99.90
41481;DHT22;27217;51.220;5.308;2022-09-03T05:07:07;17.50;99.90
41481;DHT22;27217;51.220;5.308;2022-09-03T05:09:33;17.60;99.70
41481;DHT22;27217;51.220;5.308;2022-09-03T05:11:59;17.70;99.70
41481;DHT22;27217;51.220;5.308;2022-09-03T05:14:25;17.60;99.70
41481;DHT22;27217;51.220;5.308;2022-09-03T05:16:51;17.50;99.70
41481;DHT22;27217;51.220;5.308;2022-09-03T05:19:17;17.50;99.90
41481;DHT22;27217;51.220;5.308;2022-09-03T05:21:43;17.60;99.70
41481;DHT22;27217;51.220;5.308;2022-09-03T05:24:08;17.70;99.50
41481;DHT22;27217;51.220;5.308;2022-09-03T05:26:37;17.70;99.60
41481;DHT22;27217;51.220;5.308;2022-09-03T05:29:05;17.50;99.90
41481;DHT22;27217;51.220;5.308;2022-09-03T05:31:36;17.40;99.90
41481;DHT22;27217;51.220;5.308;2022-09-03T05:34:04;17.30;99.90
41481;DHT22;27217;51.220;5.308;2022-09-03T05:36:33;17.50;99.90
41481;DHT22;27217;51.220;5.308;2022-09-03T05:39:03;17.60;99.90
41481;DHT22;27217;51.220;5.308;2022-09-03T05:41:29;17.90;99.50
41481;DHT22;27217;51.220;5.308;2022-09-03T05:43:58;17.70;99.50
41481;DHT22;27217;51.220;5.308;2022-09-03T05:46:29;17.70;99.90
41481;DHT22;27217;51.220;5.308;2022-09-03T05:48:57;17.90;99.50
41481;DHT22;27217;51.220;5.308;2022-09-03T05:51:24;17.90;99.30
41481;DHT22;27217;51.220;5.308;2022-09-03T05:53:49;18.00;99.30
41481;DHT22;27217;51.220;5.308;2022-09-03T05:56:18;18.00;99.20
41481;DHT22;27217;51.220;5.308;2022-09-03T05:58:52;18.10;98.90
41481;DHT22;27217;51.220;5.308;2022-09-03T06:01:20;18.10;98.90
41481;DHT22;27217;51.220;5.308;2022-09-03T06:03:52;18.10;99.00
41481;DHT22;27217;51.220;5.308;2022-09-03T06:06:20;18.10;99.00
41481;DHT22;27217;51.220;5.308;2022-09-03T06:09:06;18.00;99.10
41481;DHT22;27217;51.220;5.308;2022-09-03T06:11:33;18.10;99.10
41481;DHT22;27217;51.220;5.308;2022-09-03T06:14:01;18.20;98.80
41481;DHT22;27217;51.220;5.308;2022-09-03T06:16:29;18.20;99.10
41481;DHT22;27217;51.220;5.308;2022-09-03T06:18:55;18.20;99.30
41481;DHT22;27217;51.220;5.308;2022-09-03T06:21:22;18.00;99.60
41481;DHT22;27217;51.220;5.308;2022-09-03T06:23:52;18.10;99.60
41481;DHT22;27217;51.220;5.308;2022-09-03T06:26:21;18.20;99.70
41481;DHT22;27217;51.220;5.308;2022-09-03T06:28:48;18.40;99.40
41481;DHT22;27217;51.220;5.308;2022-09-03T06:31:18;18.50;99.20
41481;DHT22;27217;51.220;5.308;2022-09-03T06:33:45;18.70;98.70
41481;DHT22;27217;51.220;5.308;2022-09-03T06:36:16;18.70;98.70
41481;DHT22;27217;51.220;5.308;2022-09-03T06:38:44;18.80;98.40
41481;DHT22;27217;51.220;5.308;2022-09-03T06:41:18;19.00;98.00
41481;DHT22;27217;51.220;5.308;2022-09-03T06:43:53;19.20;97.70
41481;DHT22;27217;51.220;5.308;2022-09-03T06:46:21;19.30;97.70
41481;DHT22;27217;51.220;5.308;2022-09-03T06:48:47;19.40;97.10
41481;DHT22;27217;51.220;5.308;2022-09-03T06:51:18;19.60;96.90
41481;DHT22;27217;51.220;5.308;2022-09-03T06:53:51;19.70;97.00
41481;DHT22;27217;51.220;5.308;2022-09-03T06:56:20;20.00;96.50
41481;DHT22;27217;51.220;5.308;2022-09-03T06:58:53;20.50;95.80
41481;DHT22;27217;51.220;5.308;2022-09-03T07:01:22;20.50;95.40
41481;DHT22;27217;51.220;5.308;2022-09-03T07:03:52;20.70;95.10
41481;DHT22;27217;51.220;5.308;2022-09-03T07:06:21;20.70;94.70
41481;DHT22;27217;51.220;5.308;2022-09-03T07:08:47;20.50;94.90
41481;DHT22;27217;51.220;5.308;2022-09-03T07:11:15;20.60;94.80
41481;DHT22;27217;51.220;5.308;2022-09-03T07:13:44;20.60;94.70
41481;DHT22;27217;51.220;5.308;2022-09-03T07:18:38;21.10;94.30
41481;DHT22;27217;51.220;5.308;2022-09-03T07:21:06;21.20;94.00
41481;DHT22;27217;51.220;5.308;2022-09-03T07:23:33;21.00;94.10
41481;DHT22;27217;51.220;5.308;2022-09-03T07:26:02;21.10;94.10
41481;DHT22;27217;51.220;5.308;2022-09-03T07:28:29;21.20;93.80
41481;DHT22;27217;51.220;5.308;2022-09-03T07:31:06;21.20;93.80
41481;DHT22;27217;51.220;5.308;2022-09-03T07:33:32;21.30;93.80
41481;DHT22;27217;51.220;5.308;2022-09-03T07:36:09;21.50;93.40
41481;DHT22;27217;51.220;5.308;2022-09-03T07:38:36;21.80;92.80
41481;DHT22;27217;51.220;5.308;2022-09-03T07:41:04;21.90;92.60
41481;DHT22;27217;51.220;5.308;2022-09-03T07:43:38;22.00;92.30
41481;DHT22;27217;51.220;5.308;2022-09-03T07:46:09;22.00;92.10
41481;DHT22;27217;51.220;5.308;2022-09-03T07:48:38;21.90;92.20
41481;DHT22;27217;51.220;5.308;2022-09-03T07:51:05;21.80;92.30
41481;DHT22;27217;51.220;5.308;2022-09-03T07:53:31;21.90;92.30
41481;DHT22;27217;51.220;5.308;2022-09-03T07:56:01;22.00;91.90
41481;DHT22;27217;51.220;5.308;2022-09-03T07:58:31;21.90;92.10
41481;DHT22;27217;51.220;5.308;2022-09-03T08:00:58;21.80;92.00
41481;DHT22;27217;51.220;5.308;2022-09-03T08:03:28;21.90;92.10
41481;DHT22;27217;51.220;5.308;2022-09-03T08:05:53;21.90;92.20
41481;DHT22;27217;51.220;5.308;2022-09-03T08:08:20;21.90;92.40
41481;DHT22;27217;51.220;5.308;2022-09-03T08:10:45;22.00;92.20
41481;DHT22;27217;51.220;5.308;2022-09-03T08:13:12;22.10;92.10
41481;DHT22;27217;51.220;5.308;2022-09-03T08:15:38;22.20;91.50
41481;DHT22;27217;51.220;5.308;2022-09-03T08:18:07;22.20;91.50
41481;DHT22;27217;51.220;5.308;2022-09-03T08:20:32;22.40;91.50
41481;DHT22;27217;51.220;5.308;2022-09-03T08:23:02;22.40;91.10
41481;DHT22;27217;51.220;5.308;2022-09-03T08:25:28;22.50;90.90
41481;DHT22;27217;51.220;5.308;2022-09-03T08:27:56;22.60;90.80
41481;DHT22;27217;51.220;5.308;2022-09-03T08:30:22;22.50;90.80
41481;DHT22;27217;51.220;5.308;2022-09-03T08:32:49;22.60;91.10
41481;DHT22;27217;51.220;5.308;2022-09-03T08:35:15;22.80;90.70
41481;DHT22;27217;51.220;5.308;2022-09-03T08:37:41;23.00;90.40
41481;DHT22;27217;51.220;5.308;2022-09-03T08:40:08;23.10;90.00
41481;DHT22;27217;51.220;5.308;2022-09-03T08:45:20;23.20;89.80
41481;DHT22;27217;51.220;5.308;2022-09-03T08:47:50;23.00;90.00
41481;DHT22;27217;51.220;5.308;2022-09-03T08:50:28;23.00;90.20
41481;DHT22;27217;51.220;5.308;2022-09-03T08:58:25;23.20;89.70
41481;DHT22;27217;51.220;5.308;2022-09-03T09:00:59;23.20;90.10
41481;DHT22;27217;51.220;5.308;2022-09-03T09:03:33;23.60;88.90
41481;DHT22;27217;51.220;5.308;2022-09-03T09:06:16;23.70;88.60
41481;DHT22;27217;51.220;5.308;2022-09-03T09:08:56;23.80;88.10
41481;DHT22;27217;51.220;5.308;2022-09-03T09:16:53;24.10;87.30
41481;DHT22;27217;51.220;5.308;2022-09-03T09:21:53;24.60;86.00
41481;DHT22;27217;51.220;5.308;2022-09-03T09:24:25;24.90;85.00
41481;DHT22;27217;51.220;5.308;2022-09-03T09:26:57;25.10;84.20
41481;DHT22;27217;51.220;5.308;2022-09-03T09:29:27;24.80;84.60
41481;DHT22;27217;51.220;5.308;2022-09-03T09:31:54;24.80;84.60
41481;DHT22;27217;51.220;5.308;2022-09-03T09:34:20;24.90;84.50
41481;DHT22;27217;51.220;5.308;2022-09-03T09:36:51;24.60;85.10
41481;DHT22;27217;51.220;5.308;2022-09-03T09:39:17;24.70;85.70
41481;DHT22;27217;51.220;5.308;2022-09-03T09:41:58;24.80;85.70
41481;DHT22;27217;51.220;5.308;2022-09-03T09:44:25;25.10;84.50
41481;DHT22;27217;51.220;5.308;2022-09-03T09:47:02;25.40;83.50
41481;DHT22;27217;51.220;5.308;2022-09-03T09:52:12;26.50;80.90
41481;DHT22;27217;51.220;5.308;2022-09-03T09:54:39;27.10;79.40
41481;DHT22;27217;51.220;5.308;2022-09-03T09:57:12;27.40;78.10
41481;DHT22;27217;51.220;5.308;2022-09-03T09:59:38;27.40;76.90
41481;DHT22;27217;51.220;5.308;2022-09-03T10:02:25;27.80;76.50
41481;DHT22;27217;51.220;5.308;2022-09-03T10:05:26;28.00;76.50
41481;DHT22;27217;51.220;5.308;2022-09-03T10:07:57;27.60;76.90
41481;DHT22;27217;51.220;5.308;2022-09-03T10:10:24;27.00;77.80
41481;DHT22;27217;51.220;5.308;2022-09-03T10:12:59;26.80;78.00
41481;DHT22;27217;51.220;5.308;2022-09-03T10:15:48;27.30;77.00
41481;DHT22;27217;51.220;5.308;2022-09-03T10:21:10;26.60;78.70
41481;DHT22;27217;51.220;5.308;2022-09-03T10:23:56;27.00;77.10
41481;DHT22;27217;51.220;5.308;2022-09-03T10:26:23;27.20;76.30
41481;DHT22;27217;51.220;5.308;2022-09-03T10:29:01;27.10;76.10
41481;DHT22;27217;51.220;5.308;2022-09-03T10:34:26;27.20;76.70
41481;DHT22;27217;51.220;5.308;2022-09-03T10:37:20;27.90;75.20
41481;DHT22;27217;51.220;5.308;2022-09-03T10:45:55;28.10;73.60
41481;DHT22;27217;51.220;5.308;2022-09-03T10:48:46;28.60;72.70
41481;DHT22;27217;51.220;5.308;2022-09-03T10:56:53;28.10;72.50
41481;DHT22;27217;51.220;5.308;2022-09-03T11:05:02;30.10;68.40
41481;DHT22;27217;51.220;5.308;2022-09-03T11:07:39;30.60;68.10
41481;DHT22;27217;51.220;5.308;2022-09-03T11:10:21;31.20;66.00
41481;DHT22;27217;51.220;5.308;2022-09-03T11:15:32;32.80;62.90
41481;DHT22;27217;51.220;5.308;2022-09-03T11:18:15;32.20;62.60
41481;DHT22;27217;51.220;5.308;2022-09-03T11:20:43;32.20;62.90
41481;DHT22;27217;51.220;5.308;2022-09-03T11:23:12;33.10;60.70
41481;DHT22;27217;51.220;5.308;2022-09-03T11:25:43;32.30;61.20
41481;DHT22;27217;51.220;5.308;2022-09-03T11:28:28;31.40;63.00
41481;DHT22;27217;51.220;5.308;2022-09-03T11:34:12;33.00;59.70
41481;DHT22;27217;51.220;5.308;2022-09-03T11:36:38;32.90;59.90
41481;DHT22;27217;51.220;5.308;2022-09-03T11:39:23;32.50;60.20
41481;DHT22;27217;51.220;5.308;2022-09-03T11:41:58;33.90;59.00
41481;DHT22;27217;51.220;5.308;2022-09-03T11:44:37;35.00;57.10
41481;DHT22;27217;51.220;5.308;2022-09-03T11:47:20;34.20;57.20
41481;DHT22;27217;51.220;5.308;2022-09-03T11:49:50;34.80;56.50
41481;DHT22;27217;51.220;5.308;2022-09-03T11:52:27;34.80;56.80
41481;DHT22;27217;51.220;5.308;2022-09-03T11:54:53;34.30;56.70
41481;DHT22;27217;51.220;5.308;2022-09-03T11:59:53;35.20;55.30
41481;DHT22;27217;51.220;5.308;2022-09-03T12:02:28;34.90;56.00
41481;DHT22;27217;51.220;5.308;2022-09-03T12:05:06;37.00;54.10
41481;DHT22;27217;51.220;5.308;2022-09-03T12:13:17;38.20;51.80
41481;DHT22;27217;51.220;5.308;2022-09-03T12:18:43;39.80;50.10
41481;DHT22;27217;51.220;5.308;2022-09-03T12:21:10;39.30;50.10
41481;DHT22;27217;51.220;5.308;2022-09-03T12:26:16;39.10;50.40
41481;DHT22;27217;51.220;5.308;2022-09-03T12:28:47;39.90;50.00
41481;DHT22;27217;51.220;5.308;2022-09-03T12:31:20;40.90;49.40
41481;DHT22;27217;51.220;5.308;2022-09-03T12:33:53;40.00;48.30
41481;DHT22;27217;51.220;5.308;2022-09-03T12:36:22;39.40;49.20
41481;DHT22;27217;51.220;5.308;2022-09-03T12:38:49;37.90;49.70
41481;DHT22;27217;51.220;5.308;2022-09-03T12:41:24;37.20;51.00
41481;DHT22;27217;51.220;5.308;2022-09-03T12:43:56;36.20;52.70
41481;DHT22;27217;51.220;5.308;2022-09-03T12:46:27;36.90;51.50
41481;DHT22;27217;51.220;5.308;2022-09-03T12:48:57;38.40;49.90
41481;DHT22;27217;51.220;5.308;2022-09-03T12:51:31;39.90;48.50
41481;DHT22;27217;51.220;5.308;2022-09-03T12:53:57;41.30;48.00
41481;DHT22;27217;51.220;5.308;2022-09-03T12:56:24;41.30;47.00
41481;DHT22;27217;51.220;5.308;2022-09-03T12:58:56;39.50;48.20
41481;DHT22;27217;51.220;5.308;2022-09-03T13:01:31;39.80;48.00
41481;DHT22;27217;51.220;5.308;2022-09-03T13:06:43;40.90;47.30
41481;DHT22;27217;51.220;5.308;2022-09-03T13:09:12;41.60;46.80
41481;DHT22;27217;51.220;5.308;2022-09-03T13:11:38;39.70;47.00
41481;DHT22;27217;51.220;5.308;2022-09-03T13:14:09;37.20;49.40
41481;DHT22;27217;51.220;5.308;2022-09-03T13:27:27;35.10;52.70
41481;DHT22;27217;51.220;5.308;2022-09-03T13:35:29;32.10;56.30
41481;DHT22;27217;51.220;5.308;2022-09-03T13:38:22;31.90;56.80
41481;DHT22;27217;51.220;5.308;2022-09-03T13:43:40;31.40;58.20
41481;DHT22;27217;51.220;5.308;2022-09-03T13:48:39;31.40;58.30
41481;DHT22;27217;51.220;5.308;2022-09-03T13:51:50;31.30;58.10
41481;DHT22;27217;51.220;5.308;2022-09-03T13:54:34;31.20;58.40
41481;DHT22;27217;51.220;5.308;2022-09-03T13:57:08;30.90;58.30
41481;DHT22;27217;51.220;5.308;2022-09-03T13:59:48;30.80;58.70
41481;DHT22;27217;51.220;5.308;2022-09-03T14:05:11;31.40;58.30
41481;DHT22;27217;51.220;5.308;2022-09-03T14:13:45;31.90;57.30
41481;DHT22;27217;51.220;5.308;2022-09-03T14:16:06;31.70;58.20
41481;DHT22;27217;51.220;5.308;2022-09-03T14:21:57;30.70;60.40
41481;DHT22;27217;51.220;5.308;2022-09-03T14:24:30;30.60;61.90
41481;DHT22;27217;51.220;5.308;2022-09-03T14:27:01;30.00;68.30
41481;DHT22;27217;51.220;5.308;2022-09-03T14:29:32;28.50;84.00
41481;DHT22;27217;51.220;5.308;2022-09-03T14:40:02;23.50;99.90
41481;DHT22;27217;51.220;5.308;2022-09-03T14:54:04;24.90;99.90
41481;DHT22;27217;51.220;5.308;2022-09-03T14:56:43;26.20;99.90
41481;DHT22;27217;51.220;5.308;2022-09-03T14:59:39;27.40;99.90
41481;DHT22;27217;51.220;5.308;2022-09-03T15:07:54;36.00;90.30
41481;DHT22;27217;51.220;5.308;2022-09-03T15:26:24;32.30;94.70
41481;DHT22;27217;51.220;5.308;2022-09-03T15:36:50;33.10;93.40
41481;DHT22;27217;51.220;5.308;2022-09-03T15:39:24;33.80;89.60
41481;DHT22;27217;51.220;5.308;2022-09-03T15:41:52;33.50;92.10
41481;DHT22;27217;51.220;5.308;2022-09-03T15:44:22;32.70;91.50
41481;DHT22;27217;51.220;5.308;2022-09-03T15:46:56;32.00;93.70
41481;DHT22;27217;51.220;5.308;2022-09-03T15:49:35;31.20;94.80
41481;DHT22;27217;51.220;5.308;2022-09-03T15:52:28;30.20;96.70
41481;DHT22;27217;51.220;5.308;2022-09-03T15:55:13;29.70;99.90
41481;DHT22;27217;51.220;5.308;2022-09-03T16:00:18;29.10;99.90
41481;DHT22;27217;51.220;5.308;2022-09-03T16:02:49;28.90;99.90
41481;DHT22;27217;51.220;5.308;2022-09-03T16:05:45;28.80;99.90
41481;DHT22;27217;51.220;5.308;2022-09-03T16:08:41;28.90;99.90
41481;DHT22;27217;51.220;5.308;2022-09-03T16:11:59;29.00;99.90
41481;DHT22;27217;51.220;5.308;2022-09-03T16:14:45;28.80;99.90
41481;DHT22;27217;51.220;5.308;2022-09-03T16:17:24;28.10;99.90
41481;DHT22;27217;51.220;5.308;2022-09-03T16:19:57;27.90;99.90
41481;DHT22;27217;51.220;5.308;2022-09-03T16:25:15;27.80;99.90
41481;DHT22;27217;51.220;5.308;2022-09-03T16:33:54;27.90;99.90
41481;DHT22;27217;51.220;5.308;2022-09-03T16:39:31;28.00;99.90
41481;DHT22;27217;51.220;5.308;2022-09-03T16:42:23;27.70;99.90
41481;DHT22;27217;51.220;5.308;2022-09-03T16:45:23;27.70;99.90
41481;DHT22;27217;51.220;5.308;2022-09-03T16:53:45;28.70;99.90
41481;DHT22;27217;51.220;5.308;2022-09-03T17:10:49;35.00;84.70
41481;DHT22;27217;51.220;5.308;2022-09-03T17:16:12;34.80;80.40
41481;DHT22;27217;51.220;5.308;2022-09-03T17:21:30;32.40;85.20
41481;DHT22;27217;51.220;5.308;2022-09-03T17:43:53;27.60;99.40
41481;DHT22;27217;51.220;5.308;2022-09-03T17:49:07;26.60;99.90
41481;DHT22;27217;51.220;5.308;2022-09-03T17:51:40;26.20;99.90
41481;DHT22;27217;51.220;5.308;2022-09-03T17:54:11;26.00;99.90
41481;DHT22;27217;51.220;5.308;2022-09-03T17:59:18;25.50;99.90
41481;DHT22;27217;51.220;5.308;2022-09-03T18:02:36;25.30;99.90
41481;DHT22;27217;51.220;5.308;2022-09-03T18:11:05;25.10;99.90
41481;DHT22;27217;51.220;5.308;2022-09-03T18:13:45;25.00;99.90
41481;DHT22;27217;51.220;5.308;2022-09-03T18:16:21;24.90;99.90
41481;DHT22;27217;51.220;5.308;2022-09-03T18:18:52;24.80;99.90
41481;DHT22;27217;51.220;5.308;2022-09-03T18:21:24;24.60;99.90
41481;DHT22;27217;51.220;5.308;2022-09-03T18:24:21;24.50;99.90
41481;DHT22;27217;51.220;5.308;2022-09-03T18:30:15;24.40;99.90
41481;DHT22;27217;51.220;5.308;2022-09-03T18:33:00;24.40;99.90
41481;DHT22;27217;51.220;5.308;2022-09-03T18:35:45;24.30;99.90
41481;DHT22;27217;51.220;5.308;2022-09-03T18:38:31;24.10;99.90
41481;DHT22;27217;51.220;5.308;2022-09-03T18:50:34;24.10;99.90
41481;DHT22;27217;51.220;5.308;2022-09-03T18:53:33;24.10;99.90
41481;DHT22;27217;51.220;5.308;2022-09-03T18:56:34;24.00;99.90
41481;DHT22;27217;51.220;5.308;2022-09-03T19:15:11;23.80;99.90
41481;DHT22;27217;51.220;5.308;2022-09-03T19:24:01;23.50;99.90
41481;DHT22;27217;51.220;5.308;2022-09-03T19:30:04;23.70;99.90
41481;DHT22;27217;51.220;5.308;2022-09-03T19:33:12;23.60;99.90
41481;DHT22;27217;51.220;5.308;2022-09-03T19:48:25;23.80;99.90
41481;DHT22;27217;51.220;5.308;2022-09-03T19:51:18;23.80;99.90
41481;DHT22;27217;51.220;5.308;2022-09-03T19:54:05;23.80;99.90
41481;DHT22;27217;51.220;5.308;2022-09-03T19:56:54;23.70;99.90
41481;DHT22;27217;51.220;5.308;2022-09-03T19:59:43;23.70;99.90
41481;DHT22;27217;51.220;5.308;2022-09-03T20:02:28;23.60;99.90
41481;DHT22;27217;51.220;5.308;2022-09-03T20:05:18;23.50;99.90
41481;DHT22;27217;51.220;5.308;2022-09-03T20:08:04;23.80;99.90
41481;DHT22;27217;51.220;5.308;2022-09-03T20:10:50;23.60;99.90
41481;DHT22;27217;51.220;5.308;2022-09-03T20:13:18;23.60;99.90
41481;DHT22;27217;51.220;5.308;2022-09-03T20:16:08;23.60;99.90
41481;DHT22;27217;51.220;5.308;2022-09-03T20:18:52;23.60;99.90
41481;DHT22;27217;51.220;5.308;2022-09-03T20:30:13;23.30;99.90
41481;DHT22;27217;51.220;5.308;2022-09-03T20:43:53;23.10;99.90
41481;DHT22;27217;51.220;5.308;2022-09-03T20:52:11;22.90;99.90
41481;DHT22;27217;51.220;5.308;2022-09-03T20:54:47;22.70;99.90
41481;DHT22;27217;51.220;5.308;2022-09-03T21:00:07;22.70;99.90
41481;DHT22;27217;51.220;5.308;2022-09-03T21:02:50;22.40;99.90
41481;DHT22;27217;51.220;5.308;2022-09-03T21:10:57;22.40;99.90
41481;DHT22;27217;51.220;5.308;2022-09-03T21:13:30;22.40;99.90
41481;DHT22;27217;51.220;5.308;2022-09-03T21:18:44;22.10;99.90
41481;DHT22;27217;51.220;5.308;2022-09-03T21:21:30;22.00;99.90
41481;DHT22;27217;51.220;5.308;2022-09-03T21:26:33;21.70;99.90
41481;DHT22;27217;51.220;5.308;2022-09-03T21:29:38;21.60;99.90
41481;DHT22;27217;51.220;5.308;2022-09-03T21:34:47;22.10;99.90
41481;DHT22;27217;51.220;5.308;2022-09-03T21:37:15;22.50;99.90
41481;DHT22;27217;51.220;5.308;2022-09-03T21:39:47;22.20;99.90
41481;DHT22;27217;51.220;5.308;2022-09-03T21:45:38;21.70;99.90
41481;DHT22;27217;51.220;5.308;2022-09-03T21:48:07;21.40;99.90
41481;DHT22;27217;51.220;5.308;2022-09-03T21:50:54;21.30;99.90
41481;DHT22;27217;51.220;5.308;2022-09-03T21:53:43;21.30;99.90
41481;DHT22;27217;51.220;5.308;2022-09-03T21:56:26;21.20;99.90
41481;DHT22;27217;51.220;5.308;2022-09-03T22:02:06;21.10;99.90
41481;DHT22;27217;51.220;5.308;2022-09-03T22:04:33;21.00;99.90
41481;DHT22;27217;51.220;5.308;2022-09-03T22:10:11;20.70;99.90
41481;DHT22;27217;51.220;5.308;2022-09-03T22:15:17;20.80;99.90
41481;DHT22;27217;51.220;5.308;2022-09-03T22:18:12;20.60;99.90
41481;DHT22;27217;51.220;5.308;2022-09-03T22:20:44;20.60;99.90
41481;DHT22;27217;51.220;5.308;2022-09-03T22:23:20;20.50;99.90
41481;DHT22;27217;51.220;5.308;2022-09-03T22:26:15;20.50;99.90
41481;DHT22;27217;51.220;5.308;2022-09-03T22:29:00;20.60;99.90
41481;DHT22;27217;51.220;5.308;2022-09-03T22:37:02;20.60;99.90
41481;DHT22;27217;51.220;5.308;2022-09-03T22:39:35;20.40;99.90